createdAt,value
2023-07-07T00:02:24.881Z,4.07
2023-07-07T00:04:52.167Z,3.72
2023-07-07T00:07:19.968Z,4.03
2023-07-07T00:09:47.388Z,4.50
2023-07-07T00:12:14.656Z,4.45
2023-07-07T00:14:41.752Z,5.03
2023-07-07T00:17:09.812Z,4.75
2023-07-07T00:19:38.201Z,3.60
2023-07-07T00:22:07.613Z,4.32
2023-07-07T00:24:37.711Z,3.95
2023-07-07T00:27:04.975Z,4.30
2023-07-07T00:29:31.968Z,4.53
2023-07-07T00:31:59.671Z,4.00
2023-07-07T00:34:28.485Z,4.00
2023-07-07T00:36:55.328Z,4.40
2023-07-07T00:39:22.209Z,5.45
2023-07-07T00:41:49.385Z,4.53
2023-07-07T00:44:16.218Z,6.32
2023-07-07T00:46:43.143Z,5.18
2023-07-07T00:49:18.761Z,5.55
2023-07-07T00:51:50.844Z,5.68
2023-07-07T00:54:24.287Z,4.97
2023-07-07T00:56:53.482Z,5.22
2023-07-07T00:59:30.096Z,5.72
2023-07-07T01:02:02.877Z,5.22
2023-07-07T01:04:31.292Z,5.43
2023-07-07T01:07:12.518Z,7.18
2023-07-07T01:09:39.449Z,5.78
2023-07-07T01:12:12.456Z,6.15
2023-07-07T01:14:40.457Z,4.80
2023-07-07T01:17:24.028Z,7.18
2023-07-07T01:20:14.462Z,5.40
2023-07-07T01:22:59.444Z,6.28
2023-07-07T01:25:56.746Z,5.65
2023-07-07T01:28:49.905Z,6.45
2023-07-07T01:31:24.647Z,6.20
2023-07-07T01:33:51.650Z,7.18
2023-07-07T01:36:18.731Z,6.75
2023-07-07T01:38:47.684Z,6.50
2023-07-07T01:41:42.369Z,7.15
2023-07-07T01:44:28.452Z,6.35
2023-07-07T01:47:33.390Z,6.05
2023-07-07T01:50:12.266Z,6.13
2023-07-07T01:52:55.978Z,6.13
2023-07-07T01:55:34.407Z,7.07
2023-07-07T01:58:04.169Z,5.25
2023-07-07T02:00:32.904Z,5.90
2023-07-07T02:03:00.862Z,6.47
2023-07-07T02:05:31.702Z,5.70
2023-07-07T02:10:25.841Z,6.10
2023-07-07T02:12:52.756Z,6.55
2023-07-07T02:15:19.570Z,6.25
2023-07-07T02:17:46.481Z,6.05
2023-07-07T02:20:13.310Z,5.45
2023-07-07T02:22:40.474Z,5.68
2023-07-07T02:25:08.894Z,5.43
2023-07-07T02:27:35.720Z,5.68
2023-07-07T02:30:03.183Z,6.97
2023-07-07T02:32:30.161Z,7.75
2023-07-07T02:34:59.205Z,7.13
2023-07-07T02:37:26.722Z,6.78
2023-07-07T02:39:55.741Z,6.78
2023-07-07T02:42:22.878Z,6.22
2023-07-07T02:44:49.664Z,6.00
2023-07-07T02:47:16.560Z,6.50
2023-07-07T02:49:43.474Z,6.55
2023-07-07T02:52:10.297Z,5.72
2023-07-07T02:54:37.259Z,5.82
2023-07-07T02:57:05.636Z,6.20
2023-07-07T02:59:32.519Z,6.63
2023-07-07T03:01:59.964Z,6.45
2023-07-07T03:04:28.189Z,6.07
2023-07-07T03:06:55.307Z,6.57
2023-07-07T03:09:23.010Z,6.35
2023-07-07T03:11:49.978Z,5.75
2023-07-07T03:14:23.447Z,6.03
2023-07-07T03:16:53.355Z,6.80
2023-07-07T03:19:29.203Z,5.15
2023-07-07T03:22:12.963Z,6.40
2023-07-07T03:24:55.814Z,6.13
2023-07-07T03:27:42.908Z,7.07
2023-07-07T03:30:30.861Z,6.90
2023-07-07T03:33:07.153Z,6.15
2023-07-07T03:35:34.132Z,6.68
2023-07-07T03:38:01.578Z,6.45
2023-07-07T03:40:29.465Z,6.13
2023-07-07T03:42:57.182Z,7.40
2023-07-07T03:45:25.457Z,6.63
2023-07-07T03:47:55.513Z,7.32
2023-07-07T03:50:24.352Z,6.80
2023-07-07T03:52:52.509Z,6.82
2023-07-07T03:55:20.448Z,6.13
2023-07-07T03:57:47.336Z,6.13
2023-07-07T04:00:14.412Z,6.80
2023-07-07T04:02:41.317Z,6.30
2023-07-07T04:05:08.311Z,6.30
2023-07-07T04:07:35.304Z,5.93
2023-07-07T04:10:06.174Z,6.70
2023-07-07T04:12:33.070Z,5.05
2023-07-07T04:15:00.498Z,6.72
2023-07-07T04:17:28.153Z,6.43
2023-07-07T04:19:54.996Z,6.15
2023-07-07T04:22:22.149Z,6.50
2023-07-07T04:25:08.000Z,5.60
2023-07-07T04:27:34.891Z,6.15
2023-07-07T04:30:01.723Z,5.45
2023-07-07T04:32:28.779Z,5.65
2023-07-07T04:34:55.509Z,6.55
2023-07-07T04:37:22.283Z,5.93
2023-07-07T04:39:52.474Z,6.60
2023-07-07T04:42:19.908Z,6.22
2023-07-07T04:44:46.645Z,5.95
2023-07-07T04:47:13.604Z,5.85
2023-07-07T04:49:40.445Z,5.38
2023-07-07T04:52:07.633Z,6.57
2023-07-07T04:54:36.585Z,6.00
2023-07-07T04:57:04.933Z,5.88
2023-07-07T04:59:34.625Z,6.15
2023-07-07T05:02:01.563Z,5.28
2023-07-07T05:04:28.782Z,6.60
2023-07-07T05:06:55.625Z,5.28
2023-07-07T05:09:22.492Z,6.32
2023-07-07T05:11:49.383Z,5.30
2023-07-07T05:14:16.344Z,6.30
2023-07-07T05:16:43.282Z,6.47
2023-07-07T05:19:10.159Z,5.35
2023-07-07T05:21:37.145Z,5.80
2023-07-07T05:24:04.370Z,5.90
2023-07-07T05:26:31.267Z,6.07
2023-07-07T05:29:01.731Z,5.50
2023-07-07T05:31:28.956Z,5.17
2023-07-07T05:33:55.915Z,5.97
2023-07-07T05:36:22.835Z,6.32
2023-07-07T05:38:49.826Z,6.70
2023-07-07T05:41:17.195Z,5.40
2023-07-07T05:43:43.955Z,5.30
2023-07-07T05:46:13.995Z,4.97
2023-07-07T05:48:42.239Z,4.90
2023-07-07T05:51:12.592Z,5.95
2023-07-07T05:53:42.157Z,5.57
2023-07-07T05:56:14.211Z,4.45
2023-07-07T05:58:43.234Z,4.68
2023-07-07T06:01:11.632Z,4.15
2023-07-07T06:03:42.437Z,5.00
2023-07-07T06:06:09.773Z,5.25
2023-07-07T06:08:36.802Z,4.60
2023-07-07T06:11:04.013Z,5.28
2023-07-07T06:13:31.104Z,5.32
2023-07-07T06:15:58.066Z,4.30
2023-07-07T06:18:25.236Z,4.47
2023-07-07T06:20:54.335Z,5.55
2023-07-07T06:23:21.872Z,4.75
2023-07-07T06:25:49.508Z,5.18
2023-07-07T06:28:17.408Z,4.45
2023-07-07T06:30:44.214Z,5.32
2023-07-07T06:33:11.846Z,5.97
2023-07-07T06:35:38.624Z,4.53
2023-07-07T06:38:05.573Z,5.43
2023-07-07T06:40:32.498Z,5.03
2023-07-07T06:42:59.682Z,5.07
2023-07-07T06:45:27.312Z,4.80
2023-07-07T06:47:55.116Z,5.47
2023-07-07T06:50:33.183Z,4.80
2023-07-07T06:53:00.095Z,4.93
2023-07-07T06:55:27.227Z,6.03
2023-07-07T06:57:54.029Z,5.07
2023-07-07T07:00:21.389Z,4.50
2023-07-07T07:02:48.338Z,4.43
2023-07-07T07:05:15.454Z,4.40
2023-07-07T07:07:42.326Z,4.65
2023-07-07T07:10:11.656Z,5.03
2023-07-07T07:12:38.508Z,3.63
2023-07-07T07:15:05.739Z,4.05
2023-07-07T07:17:35.935Z,4.47
2023-07-07T07:20:05.964Z,4.65
2023-07-07T07:22:32.811Z,4.20
2023-07-07T07:24:59.609Z,4.18
2023-07-07T07:27:26.501Z,4.53
2023-07-07T07:29:53.248Z,4.97
2023-07-07T07:32:20.269Z,4.57
2023-07-07T07:34:47.111Z,4.20
2023-07-07T07:37:15.723Z,4.82
2023-07-07T07:39:42.726Z,4.57
2023-07-07T07:42:09.759Z,5.10
2023-07-07T07:44:36.770Z,6.03
2023-07-07T07:47:03.971Z,4.68
2023-07-07T07:49:31.015Z,3.67
2023-07-07T07:51:57.928Z,4.55
2023-07-07T07:54:25.704Z,3.58
2023-07-07T07:56:53.067Z,4.00
2023-07-07T07:59:20.488Z,4.53
2023-07-07T08:01:47.492Z,4.38
2023-07-07T08:04:14.652Z,3.65
2023-07-07T08:06:41.654Z,4.32
2023-07-07T08:09:08.603Z,4.20
2023-07-07T08:11:44.248Z,4.35
2023-07-07T08:14:14.528Z,4.22
2023-07-07T08:16:41.559Z,4.65
2023-07-07T08:19:09.263Z,4.00
2023-07-07T08:21:36.691Z,4.10
2023-07-07T08:24:04.727Z,4.05
2023-07-07T08:26:31.945Z,4.15
2023-07-07T08:28:59.717Z,4.00
2023-07-07T08:31:26.763Z,3.72
2023-07-07T08:33:59.440Z,4.60
2023-07-07T08:36:28.890Z,4.38
2023-07-07T08:38:56.905Z,4.55
2023-07-07T08:41:23.905Z,3.85
2023-07-07T08:43:50.874Z,4.68
2023-07-07T08:46:48.544Z,4.10
2023-07-07T08:49:26.879Z,4.07
2023-07-07T08:52:18.431Z,5.50
2023-07-07T08:57:20.085Z,3.53
2023-07-07T09:00:00.550Z,4.95
2023-07-07T09:02:42.586Z,4.23
2023-07-07T09:05:18.913Z,4.40
2023-07-07T09:08:08.865Z,3.13
2023-07-07T09:10:54.074Z,4.10
2023-07-07T09:13:25.107Z,3.35
2023-07-07T09:16:34.353Z,4.05
2023-07-07T09:19:06.044Z,4.30
2023-07-07T09:21:55.744Z,3.42
2023-07-07T09:24:45.328Z,3.70
2023-07-07T09:27:21.423Z,2.95
2023-07-07T09:29:54.785Z,3.53
2023-07-07T09:32:24.147Z,3.47
2023-07-07T09:34:50.976Z,3.25
2023-07-07T09:37:26.389Z,4.35
2023-07-07T09:40:24.175Z,3.70
2023-07-07T09:43:03.049Z,3.67
2023-07-07T09:45:35.642Z,3.55
2023-07-07T09:48:42.669Z,2.80
2023-07-07T09:51:20.589Z,2.92
2023-07-07T09:53:48.568Z,3.15
2023-07-07T09:56:21.479Z,3.35
2023-07-07T09:58:59.261Z,3.03
2023-07-07T10:01:32.442Z,3.47
2023-07-07T10:04:01.497Z,3.90
2023-07-07T10:06:53.377Z,3.45
2023-07-07T10:09:20.234Z,3.70
2023-07-07T10:12:14.508Z,3.00
2023-07-07T10:14:35.832Z,2.95
2023-07-07T10:17:11.619Z,3.25
2023-07-07T10:19:42.876Z,3.53
2023-07-07T10:22:14.302Z,3.53
2023-07-07T10:24:41.246Z,3.50
2023-07-07T10:27:13.329Z,3.20
2023-07-07T10:29:43.930Z,2.92
2023-07-07T10:32:18.891Z,3.33
2023-07-07T10:34:49.148Z,3.72
2023-07-07T10:37:38.629Z,3.30
2023-07-07T10:40:07.271Z,3.83
2023-07-07T10:42:34.388Z,3.22
2023-07-07T10:45:03.980Z,3.78
2023-07-07T10:47:34.518Z,3.75
2023-07-07T10:50:03.088Z,3.30
2023-07-07T10:56:00.826Z,3.53
2023-07-07T10:58:46.381Z,3.72
2023-07-07T11:01:33.637Z,3.33
2023-07-07T11:04:03.171Z,3.22
2023-07-07T11:06:51.025Z,3.97
2023-07-07T11:09:34.649Z,3.08
2023-07-07T11:12:10.403Z,3.47
2023-07-07T11:14:55.731Z,3.38
2023-07-07T11:17:43.773Z,3.58
2023-07-07T11:20:40.121Z,3.30
2023-07-07T11:23:37.222Z,3.70
2023-07-07T11:26:14.091Z,4.03
2023-07-07T11:28:56.836Z,3.22
2023-07-07T11:31:46.926Z,3.13
2023-07-07T11:35:04.548Z,3.45
2023-07-07T11:37:57.130Z,4.13
2023-07-07T11:40:49.914Z,3.00
2023-07-07T11:43:29.102Z,4.15
2023-07-07T11:46:23.863Z,3.70
2023-07-07T11:49:28.324Z,3.90
2023-07-07T11:52:22.801Z,4.50
2023-07-07T11:55:16.530Z,3.95
2023-07-07T11:57:57.362Z,4.57
2023-07-07T12:00:38.597Z,4.47
2023-07-07T12:05:53.949Z,4.68
2023-07-07T12:08:36.798Z,4.70
2023-07-07T12:11:08.142Z,3.65
2023-07-07T12:13:57.785Z,4.47
2023-07-07T12:16:26.024Z,4.50
2023-07-07T12:18:57.254Z,4.25
2023-07-07T12:24:39.866Z,3.20
2023-07-07T12:27:16.643Z,4.47
2023-07-07T12:29:47.240Z,4.63
2023-07-07T12:32:14.363Z,5.15
2023-07-07T12:34:47.633Z,4.82
2023-07-07T12:37:23.865Z,4.38
2023-07-07T12:39:53.276Z,4.50
2023-07-07T12:42:22.484Z,4.47
2023-07-07T12:44:49.896Z,3.60
2023-07-07T12:47:27.187Z,4.63
2023-07-07T12:50:00.464Z,4.50
2023-07-07T12:52:31.192Z,4.68
2023-07-07T12:55:20.089Z,4.53
2023-07-07T12:58:08.674Z,4.90
2023-07-07T13:00:40.564Z,4.47
2023-07-07T13:03:10.379Z,4.68
2023-07-07T13:05:47.107Z,6.25
2023-07-07T13:08:35.428Z,5.07
2023-07-07T13:11:08.224Z,4.10
2023-07-07T13:13:39.979Z,4.78
2023-07-07T13:16:13.093Z,4.40
2023-07-07T13:18:40.317Z,4.97
2023-07-07T13:21:07.626Z,4.25
2023-07-07T13:23:40.013Z,4.70
2023-07-07T13:26:07.010Z,4.88
2023-07-07T13:28:33.784Z,4.60
2023-07-07T13:31:00.742Z,4.50
2023-07-07T13:33:30.169Z,4.68
2023-07-07T13:36:02.256Z,4.75
2023-07-07T13:38:35.769Z,4.60
2023-07-07T13:41:06.434Z,5.05
2023-07-07T13:43:39.313Z,4.05
2023-07-07T13:46:32.304Z,4.15
2023-07-07T13:49:03.614Z,5.18
2023-07-07T13:54:02.987Z,5.70
2023-07-07T13:56:34.693Z,4.25
2023-07-07T13:59:02.751Z,4.22
2023-07-07T14:01:37.747Z,4.43
2023-07-07T14:04:11.643Z,4.32
2023-07-07T14:06:39.279Z,3.75
2023-07-07T14:09:24.280Z,4.38
2023-07-07T14:11:52.828Z,4.78
2023-07-07T14:14:22.193Z,4.03
2023-07-07T14:17:02.379Z,5.50
2023-07-07T14:19:38.880Z,5.28
2023-07-07T14:22:07.508Z,4.25
2023-07-07T14:24:34.324Z,4.00
2023-07-07T14:27:01.186Z,3.58
2023-07-07T14:29:42.775Z,4.00
2023-07-07T14:32:21.953Z,4.15
2023-07-07T14:34:49.883Z,3.78
2023-07-07T14:37:24.060Z,4.15
2023-07-07T14:39:51.789Z,5.00
2023-07-07T14:42:25.355Z,4.45
2023-07-07T14:44:54.516Z,4.70
2023-07-07T14:47:40.689Z,4.55
2023-07-07T14:50:11.616Z,4.88
2023-07-07T14:52:43.919Z,4.53
2023-07-07T14:55:19.027Z,4.10
2023-07-07T14:57:57.797Z,4.15
2023-07-07T15:00:32.224Z,5.03
2023-07-07T15:02:59.216Z,3.88
2023-07-07T15:05:33.937Z,4.32
2023-07-07T15:08:10.617Z,4.20
2023-07-07T15:10:39.919Z,3.47
2023-07-07T15:13:13.394Z,4.32
2023-07-07T15:15:40.844Z,4.13
2023-07-07T15:18:11.897Z,4.03
2023-07-07T15:20:39.767Z,4.22
2023-07-07T15:23:06.517Z,3.42
2023-07-07T15:25:33.772Z,4.18
2023-07-07T15:28:00.605Z,4.72
2023-07-07T15:30:27.636Z,4.15
2023-07-07T15:32:54.975Z,4.60
2023-07-07T15:35:21.883Z,4.65
2023-07-07T15:37:49.524Z,4.22
2023-07-07T15:40:19.541Z,3.75
2023-07-07T15:42:48.269Z,4.00
2023-07-07T15:45:15.447Z,13.32
2023-07-07T15:47:43.987Z,5.20
2023-07-07T15:50:21.727Z,4.40
2023-07-07T15:52:48.767Z,4.65
2023-07-07T15:55:15.696Z,4.75
2023-07-07T15:57:42.482Z,4.75
2023-07-07T16:00:29.750Z,4.53
2023-07-07T16:02:56.652Z,3.58
2023-07-07T16:05:24.476Z,3.85
2023-07-07T16:07:51.494Z,4.03
2023-07-07T16:10:18.678Z,4.22
2023-07-07T16:12:46.303Z,4.18
2023-07-07T16:15:13.439Z,4.50
2023-07-07T16:17:40.858Z,4.40
2023-07-07T16:20:22.483Z,4.55
2023-07-07T16:22:52.819Z,4.00
2023-07-07T16:25:20.244Z,2.80
2023-07-07T16:27:47.181Z,4.30
2023-07-07T16:30:28.958Z,3.80
2023-07-07T16:32:56.232Z,3.35
2023-07-07T16:35:23.645Z,3.50
2023-07-07T16:37:50.641Z,3.88
2023-07-07T16:40:32.318Z,3.60
2023-07-07T16:43:03.951Z,4.20
2023-07-07T16:45:31.740Z,3.80
2023-07-07T16:47:58.615Z,4.50
2023-07-07T16:50:33.505Z,4.55
2023-07-07T16:53:01.881Z,4.40
2023-07-07T16:55:29.356Z,4.18
2023-07-07T16:57:56.685Z,4.00
2023-07-07T17:00:26.223Z,4.88
2023-07-07T17:02:53.930Z,3.60
2023-07-07T17:05:22.925Z,3.55
2023-07-07T17:07:49.808Z,3.78
2023-07-07T17:10:30.048Z,4.00
2023-07-07T17:12:56.941Z,3.78
2023-07-07T17:15:23.946Z,3.58
2023-07-07T17:17:51.034Z,3.72
2023-07-07T17:20:31.754Z,4.93
2023-07-07T17:22:58.680Z,3.72
2023-07-07T17:25:25.511Z,3.65
2023-07-07T17:27:53.050Z,2.95
2023-07-07T17:30:26.168Z,3.88
2023-07-07T17:32:54.102Z,3.47
2023-07-07T17:35:26.690Z,3.10
2023-07-07T17:37:54.018Z,3.03
2023-07-07T17:40:36.736Z,3.95
2023-07-07T17:43:04.294Z,3.60
2023-07-07T17:45:31.246Z,6.38
2023-07-07T17:47:58.113Z,3.22
2023-07-07T17:50:50.239Z,3.42
2023-07-07T17:53:17.011Z,3.05
2023-07-07T17:55:43.851Z,4.20
2023-07-07T17:58:12.406Z,2.92
2023-07-07T18:00:42.428Z,2.85
2023-07-07T18:03:09.302Z,4.20
2023-07-07T18:05:36.066Z,2.95
2023-07-07T18:08:03.212Z,3.92
2023-07-07T18:10:32.778Z,3.22
2023-07-07T18:12:59.715Z,2.88
2023-07-07T18:15:26.999Z,2.80
2023-07-07T18:18:16.888Z,3.33
2023-07-07T18:21:50.890Z,2.83
2023-07-07T18:23:31.209Z,3.40
2023-07-07T18:25:58.367Z,3.72
2023-07-07T18:28:25.349Z,3.35
2023-07-07T18:30:56.914Z,2.97
2023-07-07T18:33:24.465Z,3.78
2023-07-07T18:35:51.672Z,3.53
2023-07-07T18:38:22.992Z,2.83
2023-07-07T18:40:50.367Z,3.78
2023-07-07T18:43:17.268Z,3.63
2023-07-07T18:45:44.102Z,3.42
2023-07-07T18:48:15.790Z,3.42
2023-07-07T18:50:43.403Z,3.90
2023-07-07T18:53:10.115Z,3.22
2023-07-07T18:55:37.169Z,3.65
2023-07-07T18:58:09.925Z,3.08
2023-07-07T19:00:40.380Z,3.08
2023-07-07T19:03:09.011Z,6.10
2023-07-07T19:05:35.973Z,3.25
2023-07-07T19:08:03.164Z,3.60
2023-07-07T19:10:33.972Z,3.38
2023-07-07T19:13:22.335Z,3.80
2023-07-07T19:15:53.082Z,3.20
2023-07-07T19:18:41.720Z,3.28
2023-07-07T19:21:23.379Z,3.67
2023-07-07T19:23:51.131Z,3.45
2023-07-07T19:26:31.573Z,3.22
2023-07-07T19:29:00.991Z,3.63
2023-07-07T19:31:29.086Z,3.28
2023-07-07T19:33:56.198Z,3.22
2023-07-07T19:36:29.578Z,3.63
2023-07-07T19:38:57.194Z,7.53
2023-07-07T19:41:32.081Z,3.80
2023-07-07T19:43:59.587Z,3.67
2023-07-07T19:46:29.344Z,3.90
2023-07-07T19:48:57.100Z,3.38
2023-07-07T19:51:27.125Z,3.55
2023-07-07T19:53:55.678Z,3.85
2023-07-07T19:56:24.559Z,3.67
2023-07-07T19:58:55.047Z,3.25
2023-07-07T20:01:24.948Z,3.30
2023-07-07T20:03:53.418Z,3.42
2023-07-07T20:06:31.838Z,3.35
2023-07-07T20:08:58.787Z,4.07
2023-07-07T20:11:30.582Z,3.28
2023-07-07T20:13:58.497Z,4.50
2023-07-07T20:16:45.913Z,3.70
2023-07-07T20:19:15.182Z,7.30
2023-07-07T20:21:42.992Z,7.65
2023-07-07T20:24:21.754Z,4.25
2023-07-07T20:26:50.018Z,3.53
2023-07-07T20:29:18.774Z,4.07
2023-07-07T20:31:47.043Z,4.18
2023-07-07T20:34:14.413Z,3.92
2023-07-07T20:36:43.616Z,4.43
2023-07-07T20:39:15.384Z,4.32
2023-07-07T20:41:47.033Z,3.78
2023-07-07T20:44:13.820Z,3.60
2023-07-07T20:46:42.808Z,3.85
2023-07-07T20:49:18.677Z,4.38
2023-07-07T20:51:46.216Z,3.78
2023-07-07T20:54:13.577Z,4.18
2023-07-07T20:56:40.413Z,5.97
2023-07-07T20:59:21.527Z,7.28
2023-07-07T21:01:53.377Z,5.35
2023-07-07T21:04:20.232Z,4.55
2023-07-07T21:06:47.051Z,4.25
2023-07-07T21:09:14.194Z,5.05
2023-07-07T21:11:41.727Z,4.95
2023-07-07T21:14:08.895Z,4.38
2023-07-07T21:16:36.871Z,4.85
2023-07-07T21:19:03.771Z,4.40
2023-07-07T21:21:30.694Z,3.97
2023-07-07T21:23:57.627Z,4.78
2023-07-07T21:26:31.681Z,4.10
2023-07-07T21:28:59.472Z,4.78
2023-07-07T21:31:29.560Z,4.45
2023-07-07T21:33:56.791Z,5.35
2023-07-07T21:36:26.573Z,4.68
2023-07-07T21:38:54.279Z,4.60
2023-07-07T21:41:26.225Z,4.60
2023-07-07T21:43:58.372Z,3.40
2023-07-07T21:46:26.278Z,4.82
2023-07-07T21:48:53.151Z,9.60
2023-07-07T21:51:22.458Z,4.88
2023-07-07T21:53:49.269Z,3.97
2023-07-07T21:56:21.466Z,3.95
2023-07-07T21:58:50.216Z,4.20
2023-07-07T22:01:18.244Z,3.92
2023-07-07T22:03:45.218Z,3.50
2023-07-07T22:06:14.182Z,5.47
2023-07-07T22:08:41.757Z,4.70
2023-07-07T22:11:15.196Z,4.80
2023-07-07T22:13:42.158Z,4.47
2023-07-07T22:16:14.253Z,4.07
2023-07-07T22:18:53.523Z,4.43
2023-07-07T22:21:22.901Z,4.75
2023-07-07T22:23:50.792Z,4.45
2023-07-07T22:26:24.143Z,4.13
2023-07-07T22:28:54.659Z,4.70
2023-07-07T22:31:21.581Z,4.05
2023-07-07T22:33:51.148Z,5.13
2023-07-07T22:36:25.318Z,4.13
2023-07-07T22:38:52.471Z,3.65
2023-07-07T22:41:27.755Z,4.22
2023-07-07T22:43:55.063Z,4.40
2023-07-07T22:46:23.453Z,4.22
2023-07-07T22:48:50.289Z,4.18
2023-07-07T22:51:17.822Z,4.32
2023-07-07T22:53:44.834Z,4.43
2023-07-07T22:56:38.522Z,4.40
2023-07-07T22:59:20.670Z,3.35
2023-07-07T23:01:47.523Z,4.28
2023-07-07T23:04:14.296Z,3.80
2023-07-07T23:06:41.182Z,5.93
2023-07-07T23:09:42.006Z,4.53
2023-07-07T23:12:16.828Z,4.43
2023-07-07T23:14:45.529Z,6.07
2023-07-07T23:17:35.346Z,4.93
2023-07-07T23:20:23.688Z,4.55
2023-07-07T23:22:56.600Z,4.07
2023-07-07T23:25:26.467Z,4.53
2023-07-07T23:28:03.530Z,4.30
2023-07-07T23:30:38.757Z,5.25
2023-07-07T23:33:14.132Z,5.93
2023-07-07T23:35:44.643Z,5.00
2023-07-07T23:38:15.735Z,5.75
2023-07-07T23:40:42.878Z,5.75
2023-07-07T23:43:11.430Z,5.65
2023-07-07T23:45:38.761Z,5.63
2023-07-07T23:48:15.151Z,5.47
2023-07-07T23:50:49.763Z,5.15
2023-07-07T23:53:22.106Z,6.38
2023-07-07T23:55:50.103Z,5.93
2023-07-07T23:58:19.404Z,5.55
